createdAt,value
2019-05-28T00:00:01.915Z,7.13
2019-05-28T00:02:18.764Z,8.03
2019-05-28T00:04:46.236Z,7.17
2019-05-28T00:07:12.499Z,6.57
2019-05-28T00:09:38.708Z,7.97
2019-05-28T00:12:05.444Z,6.30
2019-05-28T00:14:31.620Z,6.13
2019-05-28T00:16:57.776Z,5.33
2019-05-28T00:19:25.802Z,7.07
2019-05-28T00:21:52.317Z,5.73
2019-05-28T00:24:18.762Z,7.10
2019-05-28T00:26:44.933Z,8.10
2019-05-28T00:29:11.374Z,6.40
2019-05-28T00:31:37.561Z,11.63
2019-05-28T00:34:03.953Z,11.20
2019-05-28T00:36:31.256Z,9.73
2019-05-28T00:38:57.520Z,6.93
2019-05-28T00:41:23.674Z,8.47
2019-05-28T00:43:50.166Z,7.50
2019-05-28T00:46:16.363Z,7.43
2019-05-28T00:48:43.589Z,7.10
2019-05-28T00:51:09.806Z,7.80
2019-05-28T00:53:36.017Z,7.87
2019-05-28T00:56:02.175Z,6.83
2019-05-28T00:58:30.645Z,6.10
2019-05-28T01:00:56.895Z,9.57
2019-05-28T01:03:23.060Z,8.30
2019-05-28T01:05:49.207Z,8.03
2019-05-28T01:08:15.349Z,6.67
2019-05-28T01:10:42.831Z,8.90
2019-05-28T01:13:10.144Z,7.53
2019-05-28T01:15:36.494Z,6.03
2019-05-28T01:18:03.336Z,7.27
2019-05-28T01:20:29.943Z,9.77
2019-05-28T01:22:56.119Z,7.17
2019-05-28T01:25:22.263Z,5.93
2019-05-28T01:27:48.402Z,6.90
2019-05-28T01:30:14.787Z,6.03
2019-05-28T01:32:41.014Z,7.20
2019-05-28T01:35:08.563Z,7.83
2019-05-28T01:37:34.812Z,10.23
2019-05-28T01:40:03.313Z,6.67
2019-05-28T01:42:29.462Z,7.03
2019-05-28T01:44:55.965Z,7.73
2019-05-28T01:47:22.203Z,7.57
2019-05-28T01:49:48.534Z,7.73
2019-05-28T01:52:14.718Z,7.30
2019-05-28T01:54:41.267Z,7.73
2019-05-28T01:57:07.467Z,6.27
2019-05-28T01:59:33.619Z,6.33
2019-05-28T02:01:59.801Z,9.70
2019-05-28T02:04:25.935Z,5.80
2019-05-28T02:06:52.088Z,8.20
2019-05-28T02:09:18.231Z,5.60
2019-05-28T02:11:44.395Z,6.80
2019-05-28T02:14:10.525Z,8.43
2019-05-28T02:16:36.730Z,5.67
2019-05-28T02:19:03.101Z,8.27
2019-05-28T02:21:29.358Z,6.93
2019-05-28T02:23:55.500Z,6.57
2019-05-28T02:26:21.677Z,6.00
2019-05-28T02:28:47.820Z,5.53
2019-05-28T02:31:26.965Z,6.93
2019-05-28T02:33:42.194Z,6.93
2019-05-28T02:36:08.329Z,7.80
2019-05-28T02:38:34.859Z,8.00
2019-05-28T02:41:01.028Z,7.17
2019-05-28T02:43:27.369Z,7.10
2019-05-28T02:45:53.539Z,7.30
2019-05-28T02:48:19.924Z,7.90
2019-05-28T02:50:58.999Z,6.43
2019-05-28T02:53:25.946Z,8.70
2019-05-28T02:55:52.942Z,5.77
2019-05-28T02:58:20.395Z,5.93
2019-05-28T03:00:48.339Z,6.20
2019-05-28T03:03:15.393Z,9.80
2019-05-28T03:05:42.644Z,6.17
2019-05-28T03:08:10.397Z,4.93
2019-05-28T03:11:01.359Z,6.37
2019-05-28T03:13:05.819Z,8.00
2019-05-28T03:15:35.231Z,6.60
2019-05-28T03:18:02.262Z,6.47
2019-05-28T03:20:30.245Z,6.13
2019-05-28T03:22:56.699Z,5.60
2019-05-28T03:25:22.878Z,6.93
2019-05-28T03:27:49.300Z,6.40
2019-05-28T03:30:15.558Z,9.83
2019-05-28T03:32:41.939Z,6.63
2019-05-28T03:35:08.487Z,6.47
2019-05-28T03:37:35.647Z,7.03
2019-05-28T03:40:05.403Z,8.50
2019-05-28T03:42:31.557Z,8.70
2019-05-28T03:44:57.741Z,8.60
2019-05-28T03:47:24.130Z,9.90
2019-05-28T03:49:50.514Z,10.73
2019-05-28T03:52:16.723Z,9.77
2019-05-28T03:54:43.442Z,14.40
2019-05-28T03:57:09.591Z,14.27
2019-05-28T03:59:35.746Z,16.23
2019-05-28T04:02:02.009Z,11.20
2019-05-28T04:04:28.372Z,10.20
2019-05-28T04:06:54.506Z,8.47
2019-05-28T04:09:21.930Z,7.40
2019-05-28T04:11:48.079Z,8.30
2019-05-28T04:14:14.519Z,10.10
2019-05-28T04:16:40.823Z,9.20
2019-05-28T04:19:07.232Z,6.47
2019-05-28T04:21:33.376Z,9.77
2019-05-28T04:23:59.561Z,8.90
2019-05-28T04:26:25.735Z,8.23
2019-05-28T04:28:52.032Z,6.70
2019-05-28T04:31:18.185Z,9.83
2019-05-28T04:33:44.362Z,11.60
2019-05-28T04:36:10.623Z,9.80
2019-05-28T04:38:36.782Z,11.50
2019-05-28T04:41:02.941Z,8.73
2019-05-28T04:43:29.132Z,7.00
2019-05-28T04:45:55.252Z,7.90
2019-05-28T04:48:21.425Z,8.67
2019-05-28T04:50:47.580Z,10.27
2019-05-28T04:53:13.743Z,9.17
2019-05-28T04:55:40.273Z,10.50
2019-05-28T04:58:06.439Z,9.30
2019-05-28T05:00:32.610Z,8.00
2019-05-28T05:03:00.712Z,8.83
2019-05-28T05:05:26.832Z,8.20
2019-05-28T05:07:52.992Z,9.20
2019-05-28T05:10:19.642Z,8.67
2019-05-28T05:12:46.062Z,8.27
2019-05-28T05:15:12.571Z,8.00
2019-05-28T05:17:39.090Z,7.77
2019-05-28T05:20:06.186Z,9.47
2019-05-28T05:22:32.351Z,8.13
2019-05-28T05:24:58.532Z,8.70
2019-05-28T05:27:24.690Z,17.17
2019-05-28T05:29:51.095Z,22.47
2019-05-28T05:32:17.320Z,26.67
2019-05-28T05:34:44.601Z,31.37
2019-05-28T05:37:10.766Z,33.40
2019-05-28T05:39:36.960Z,31.53
2019-05-28T05:42:04.803Z,38.73
2019-05-28T05:44:31.126Z,39.57
2019-05-28T05:46:57.265Z,34.63
2019-05-28T05:49:23.440Z,34.53
2019-05-28T05:51:49.870Z,28.87
2019-05-28T05:54:16.016Z,27.43
2019-05-28T05:56:42.518Z,26.07
2019-05-28T05:59:08.754Z,21.47
2019-05-28T06:01:34.951Z,18.23
2019-05-28T06:04:01.422Z,19.20
2019-05-28T06:06:27.659Z,24.30
2019-05-28T06:08:53.797Z,21.27
2019-05-28T06:11:20.247Z,12.67
2019-05-28T06:13:46.402Z,15.07
2019-05-28T06:16:12.620Z,13.47
2019-05-28T06:18:38.849Z,7.93
2019-05-28T06:21:13.789Z,9.83
2019-05-28T06:23:33.407Z,11.07
2019-05-28T06:25:59.931Z,9.90
2019-05-28T06:28:26.091Z,11.77
2019-05-28T06:30:52.727Z,12.37
2019-05-28T06:33:19.139Z,12.80
2019-05-28T06:35:45.327Z,10.27
2019-05-28T06:38:11.491Z,10.67
2019-05-28T06:40:37.658Z,14.13
2019-05-28T06:43:03.816Z,10.83
2019-05-28T06:45:30.027Z,11.83
2019-05-28T06:47:56.171Z,12.37
2019-05-28T06:50:22.510Z,10.13
2019-05-28T06:52:48.655Z,13.63
2019-05-28T06:55:15.533Z,11.10
2019-05-28T06:57:41.687Z,13.00
2019-05-28T07:00:08.735Z,14.13
2019-05-28T07:02:34.903Z,16.67
2019-05-28T07:05:01.366Z,16.07
2019-05-28T07:07:27.559Z,14.23
2019-05-28T07:09:53.695Z,10.93
2019-05-28T07:12:21.092Z,11.97
2019-05-28T07:14:47.450Z,15.00
2019-05-28T07:17:13.612Z,14.20
2019-05-28T07:19:39.767Z,17.70
2019-05-28T07:22:05.937Z,17.33
2019-05-28T07:24:32.063Z,14.60
2019-05-28T07:26:58.591Z,15.37
2019-05-28T07:29:24.733Z,18.73
2019-05-28T07:31:52.017Z,14.27
2019-05-28T07:34:30.130Z,13.40
2019-05-28T07:36:46.359Z,14.00
2019-05-28T07:39:13.316Z,13.23
2019-05-28T07:41:39.503Z,23.00
2019-05-28T07:44:05.648Z,15.60
2019-05-28T07:46:31.798Z,17.97
2019-05-28T07:48:58.083Z,14.50
2019-05-28T07:51:24.480Z,16.25
2019-05-28T07:53:50.629Z,13.33
2019-05-28T07:56:16.775Z,13.03
2019-05-28T07:58:42.991Z,16.50
2019-05-28T08:01:09.180Z,14.53
2019-05-28T08:03:35.489Z,13.13
2019-05-28T08:06:02.063Z,16.50
2019-05-28T08:08:28.544Z,12.90
2019-05-28T08:10:54.695Z,12.23
2019-05-28T08:13:20.873Z,15.20
2019-05-28T08:15:47.242Z,14.83
2019-05-28T08:18:13.605Z,15.07
2019-05-28T08:20:40.050Z,12.53
2019-05-28T08:23:06.195Z,15.23
2019-05-28T08:25:46.059Z,14.67
2019-05-28T08:28:18.689Z,15.37
2019-05-28T08:30:28.744Z,14.57
2019-05-28T08:32:54.904Z,14.57
2019-05-28T08:35:21.068Z,15.40
2019-05-28T08:37:47.235Z,14.93
2019-05-28T08:40:14.603Z,13.70
2019-05-28T08:42:40.897Z,14.17
2019-05-28T08:45:07.495Z,12.03
2019-05-28T08:47:33.752Z,11.27
2019-05-28T08:49:59.934Z,15.20
2019-05-28T08:52:26.152Z,14.50
2019-05-28T08:54:52.311Z,9.67
2019-05-28T08:57:18.463Z,10.43
2019-05-28T08:59:44.640Z,10.53
2019-05-28T09:02:26.383Z,10.77
2019-05-28T09:04:39.279Z,9.30
2019-05-28T09:07:05.478Z,7.83
2019-05-28T09:09:32.148Z,9.33
2019-05-28T09:11:58.402Z,6.83
2019-05-28T09:14:24.598Z,9.80
2019-05-28T09:16:50.914Z,9.60
2019-05-28T09:19:17.298Z,9.37
2019-05-28T09:21:43.571Z,9.00
2019-05-28T09:24:09.733Z,9.97
2019-05-28T09:26:35.870Z,13.20
2019-05-28T09:29:02.049Z,10.77
2019-05-28T09:31:28.275Z,12.20
2019-05-28T09:33:54.691Z,9.83
2019-05-28T09:36:20.889Z,10.97
2019-05-28T09:38:47.053Z,10.23
2019-05-28T09:41:13.305Z,10.67
2019-05-28T09:43:39.707Z,9.57
2019-05-28T09:46:06.581Z,9.80
2019-05-28T09:48:32.730Z,8.10
2019-05-28T09:50:58.917Z,9.00
2019-05-28T09:53:25.097Z,8.50
2019-05-28T09:55:51.349Z,10.30
2019-05-28T09:58:17.535Z,8.03
2019-05-28T10:00:57.785Z,9.57
2019-05-28T10:03:12.401Z,10.10
2019-05-28T10:05:38.639Z,11.93
2019-05-28T10:08:05.088Z,11.37
2019-05-28T10:10:31.698Z,12.27
2019-05-28T10:12:57.920Z,11.43
2019-05-28T10:15:24.301Z,11.20
2019-05-28T10:17:50.908Z,12.70
2019-05-28T10:20:17.757Z,10.97
2019-05-28T10:22:43.903Z,12.23
2019-05-28T10:25:10.691Z,12.90
2019-05-28T10:27:36.976Z,13.90
2019-05-28T10:30:06.392Z,12.83
2019-05-28T10:32:33.262Z,13.53
2019-05-28T10:35:03.685Z,15.17
2019-05-28T10:37:27.928Z,13.40
2019-05-28T10:39:54.140Z,11.90
2019-05-28T10:42:20.530Z,16.67
2019-05-28T10:44:46.716Z,12.80
2019-05-28T10:47:12.853Z,12.50
2019-05-28T10:49:39.073Z,12.57
2019-05-28T10:52:05.247Z,10.10
2019-05-28T10:54:31.424Z,13.50
2019-05-28T10:56:57.566Z,12.37
2019-05-28T10:59:24.277Z,11.60
2019-05-28T11:01:50.457Z,8.77
2019-05-28T11:04:17.109Z,12.43
2019-05-28T11:06:51.757Z,9.80
2019-05-28T11:09:11.338Z,12.70
2019-05-28T11:11:37.488Z,10.47
2019-05-28T11:14:04.448Z,14.90
2019-05-28T11:16:30.964Z,9.73
2019-05-28T11:18:57.113Z,12.43
2019-05-28T11:21:23.377Z,12.57
2019-05-28T11:23:50.521Z,13.23
2019-05-28T11:26:16.699Z,11.80
2019-05-28T11:28:42.849Z,14.03
2019-05-28T11:31:09.006Z,13.40
2019-05-28T11:33:35.586Z,10.00
2019-05-28T11:36:01.750Z,10.67
2019-05-28T11:38:28.248Z,9.97
2019-05-28T11:40:54.407Z,9.70
2019-05-28T11:43:20.806Z,8.30
2019-05-28T11:45:47.219Z,8.67
2019-05-28T11:48:13.483Z,8.97
2019-05-28T11:50:40.169Z,7.93
2019-05-28T11:53:06.349Z,9.70
2019-05-28T11:55:33.610Z,7.23
2019-05-28T11:57:59.773Z,7.60
2019-05-28T12:00:26.618Z,5.77
2019-05-28T12:02:52.776Z,7.60
2019-05-28T12:05:20.053Z,6.23
2019-05-28T12:07:46.259Z,6.37
2019-05-28T12:10:14.756Z,6.77
2019-05-28T12:12:41.307Z,6.03
2019-05-28T12:15:09.721Z,6.63
2019-05-28T12:17:42.734Z,10.00
2019-05-28T12:20:05.089Z,8.97
2019-05-28T12:22:31.319Z,3.87
2019-05-28T12:24:57.477Z,3.53
2019-05-28T12:27:23.898Z,3.30
2019-05-28T12:29:52.169Z,2.47
2019-05-28T12:32:18.636Z,3.47
2019-05-28T12:34:44.785Z,2.73
2019-05-28T12:37:10.982Z,4.07
2019-05-28T12:39:37.165Z,2.97
2019-05-28T12:42:07.211Z,4.83
2019-05-28T12:44:41.539Z,4.73
2019-05-28T12:47:00.032Z,5.03
2019-05-28T12:49:26.378Z,3.70
2019-05-28T12:51:52.540Z,3.83
2019-05-28T12:54:18.992Z,4.97
2019-05-28T12:56:45.197Z,3.83
2019-05-28T12:59:11.329Z,2.73
2019-05-28T13:01:37.499Z,2.40
2019-05-28T13:04:04.350Z,2.57
2019-05-28T13:06:30.888Z,2.43
2019-05-28T13:08:57.312Z,2.67
2019-05-28T13:11:23.573Z,2.10
2019-05-28T13:13:49.967Z,2.23
2019-05-28T13:16:16.118Z,3.73
2019-05-28T13:18:42.297Z,4.67
2019-05-28T13:21:08.734Z,3.53
2019-05-28T13:23:34.990Z,4.07
2019-05-28T13:26:01.193Z,6.13
2019-05-28T13:28:27.353Z,3.97
2019-05-28T13:30:53.616Z,7.53
2019-05-28T13:33:20.073Z,4.67
2019-05-28T13:35:46.489Z,4.17
2019-05-28T13:38:26.289Z,4.70
2019-05-28T13:40:40.799Z,4.73
2019-05-28T13:43:07.362Z,3.90
2019-05-28T13:45:33.733Z,6.77
2019-05-28T13:47:59.893Z,5.37
2019-05-28T13:50:26.575Z,5.33
2019-05-28T13:52:54.740Z,6.00
2019-05-28T13:55:21.109Z,6.50
2019-05-28T13:57:47.591Z,6.80
2019-05-28T14:00:16.028Z,5.97
2019-05-28T14:02:46.062Z,5.90
2019-05-28T14:05:10.978Z,6.60
2019-05-28T14:07:37.396Z,6.50
2019-05-28T14:10:05.971Z,6.43
2019-05-28T14:12:32.430Z,6.63
2019-05-28T14:14:58.591Z,6.93
2019-05-28T14:17:24.719Z,7.40
2019-05-28T14:19:50.992Z,6.70
2019-05-28T14:22:32.867Z,8.17
2019-05-28T14:24:45.225Z,11.93
2019-05-28T14:27:11.434Z,8.20
2019-05-28T14:29:37.600Z,7.13
2019-05-28T14:32:03.755Z,7.60
2019-05-28T14:34:29.902Z,7.30
2019-05-28T14:36:56.292Z,6.50
2019-05-28T14:39:22.441Z,5.77
2019-05-28T14:41:48.823Z,4.80
2019-05-28T14:44:15.397Z,4.83
2019-05-28T14:46:41.613Z,6.40
2019-05-28T14:49:08.300Z,5.13
2019-05-28T14:51:35.026Z,5.23
2019-05-28T14:54:01.249Z,5.20
2019-05-28T14:56:27.581Z,5.53
2019-05-28T14:58:54.074Z,7.03
2019-05-28T15:01:20.335Z,6.33
2019-05-28T15:03:46.672Z,6.00
2019-05-28T15:06:12.861Z,5.70
2019-05-28T15:08:39.033Z,6.37
2019-05-28T15:11:05.445Z,7.50
2019-05-28T15:13:31.615Z,9.57
2019-05-28T15:15:57.770Z,9.50
2019-05-28T15:18:23.965Z,8.63
2019-05-28T15:20:50.486Z,8.30
2019-05-28T15:23:16.994Z,7.20
2019-05-28T15:25:44.411Z,7.80
2019-05-28T15:28:12.077Z,8.70
2019-05-28T15:30:38.301Z,6.77
2019-05-28T15:33:04.527Z,8.67
2019-05-28T15:35:31.118Z,6.77
2019-05-28T15:37:57.290Z,7.07
2019-05-28T15:40:23.701Z,7.47
2019-05-28T15:43:04.880Z,7.80
2019-05-28T15:45:19.011Z,7.13
2019-05-28T15:47:45.340Z,6.27
2019-05-28T15:50:12.622Z,6.10
2019-05-28T15:52:38.772Z,5.97
2019-05-28T15:55:06.548Z,6.20
2019-05-28T15:57:33.019Z,5.07
2019-05-28T15:59:59.218Z,6.83
2019-05-28T16:02:25.696Z,5.23
2019-05-28T16:04:51.924Z,5.43
2019-05-28T16:07:18.154Z,4.20
2019-05-28T16:09:55.620Z,4.73
2019-05-28T16:12:12.928Z,3.53
2019-05-28T16:14:39.093Z,4.60
2019-05-28T16:17:05.518Z,3.87
2019-05-28T16:19:32.108Z,5.60
2019-05-28T16:21:58.327Z,4.97
2019-05-28T16:24:24.493Z,4.40
2019-05-28T16:26:50.746Z,4.33
2019-05-28T16:29:16.970Z,5.53
2019-05-28T16:31:43.406Z,4.50
2019-05-28T16:34:09.556Z,4.20
2019-05-28T16:36:35.708Z,5.00
2019-05-28T16:39:02.734Z,5.17
2019-05-28T16:41:30.480Z,5.53
2019-05-28T16:43:56.636Z,5.63
2019-05-28T16:46:23.142Z,6.53
2019-05-28T16:48:49.671Z,6.07
2019-05-28T16:51:16.295Z,5.07
2019-05-28T16:53:42.564Z,5.97
2019-05-28T16:56:09.828Z,6.77
2019-05-28T16:58:35.980Z,5.50
2019-05-28T17:01:21.112Z,5.53
2019-05-28T17:03:30.271Z,6.30
2019-05-28T17:05:56.845Z,6.07
2019-05-28T17:08:23.005Z,7.50
2019-05-28T17:10:49.201Z,7.43
2019-05-28T17:13:17.258Z,6.20
2019-05-28T17:15:43.812Z,6.70
2019-05-28T17:18:11.123Z,6.97
2019-05-28T17:20:37.297Z,6.20
2019-05-28T17:23:03.716Z,5.63
2019-05-28T17:25:29.874Z,6.30
2019-05-28T17:27:56.445Z,6.80
2019-05-28T17:30:24.514Z,5.47
2019-05-28T17:32:50.968Z,6.17
2019-05-28T17:35:17.520Z,5.87
2019-05-28T17:37:44.854Z,7.00
2019-05-28T17:40:11.220Z,8.20
2019-05-28T17:42:37.649Z,7.40
2019-05-28T17:45:05.200Z,9.80
2019-05-28T17:47:31.976Z,7.23
2019-05-28T17:49:58.232Z,7.27
2019-05-28T17:52:24.415Z,7.47
2019-05-28T17:54:50.568Z,8.20
2019-05-28T17:57:16.741Z,6.40
2019-05-28T17:59:42.891Z,6.63
2019-05-28T18:02:09.075Z,7.57
2019-05-28T18:04:35.680Z,7.27
2019-05-28T18:07:02.007Z,6.73
2019-05-28T18:09:28.315Z,7.90
2019-05-28T18:11:54.819Z,8.27
2019-05-28T18:14:23.892Z,7.40
2019-05-28T18:16:50.486Z,5.33
2019-05-28T18:19:16.983Z,6.53
2019-05-28T18:21:43.517Z,6.23
2019-05-28T18:24:09.943Z,7.73
2019-05-28T18:26:36.407Z,7.57
2019-05-28T18:29:02.731Z,6.63
2019-05-28T18:31:28.900Z,8.37
2019-05-28T18:33:55.063Z,6.63
2019-05-28T18:36:21.237Z,6.90
2019-05-28T18:38:49.851Z,8.37
2019-05-28T18:41:21.687Z,7.40
2019-05-28T18:43:44.404Z,7.13
2019-05-28T18:46:10.642Z,6.70
2019-05-28T18:48:38.506Z,12.00
2019-05-28T18:51:04.894Z,9.77
2019-05-28T18:53:31.075Z,7.37
2019-05-28T18:55:57.475Z,8.07
2019-05-28T18:58:23.671Z,6.20
2019-05-28T19:00:50.253Z,5.40
2019-05-28T19:03:16.517Z,6.87
2019-05-28T19:05:42.701Z,6.47
2019-05-28T19:08:08.853Z,9.23
2019-05-28T19:10:36.157Z,4.90
2019-05-28T19:13:02.795Z,9.07
2019-05-28T19:15:28.945Z,6.47
2019-05-28T19:17:55.158Z,5.53
2019-05-28T19:20:21.409Z,7.40
2019-05-28T19:22:47.575Z,5.53
2019-05-28T19:25:15.479Z,6.07
2019-05-28T19:27:42.128Z,6.17
2019-05-28T19:30:09.657Z,7.40
2019-05-28T19:32:36.822Z,5.70
2019-05-28T19:35:07.976Z,6.10
2019-05-28T19:37:35.187Z,6.53
2019-05-28T19:40:02.700Z,8.90
2019-05-28T19:42:29.405Z,6.60
2019-05-28T19:44:55.614Z,8.80
2019-05-28T19:47:22.070Z,7.43
2019-05-28T19:49:48.277Z,12.87
2019-05-28T19:52:14.580Z,9.70
2019-05-28T19:54:40.815Z,6.87
2019-05-28T19:57:06.981Z,8.67
2019-05-28T19:59:34.172Z,6.45
2019-05-28T20:02:00.528Z,10.20
2019-05-28T20:04:26.917Z,6.70
2019-05-28T20:06:53.138Z,8.60
2019-05-28T20:09:19.385Z,6.90
2019-05-28T20:11:45.540Z,8.43
2019-05-28T20:14:11.679Z,8.83
2019-05-28T20:16:37.857Z,8.63
2019-05-28T20:19:03.998Z,8.13
2019-05-28T20:21:30.179Z,8.60
2019-05-28T20:23:57.353Z,6.30
2019-05-28T20:26:23.742Z,6.63
2019-05-28T20:28:58.692Z,6.63
2019-05-28T20:31:18.213Z,7.60
2019-05-28T20:33:44.396Z,6.77
2019-05-28T20:36:11.046Z,8.87
2019-05-28T20:38:37.302Z,7.23
2019-05-28T20:41:04.003Z,9.87
2019-05-28T20:43:31.765Z,7.00
2019-05-28T20:45:58.051Z,9.17
2019-05-28T20:48:24.332Z,6.23
2019-05-28T20:50:50.480Z,7.33
2019-05-28T20:53:16.639Z,9.17
2019-05-28T20:55:42.779Z,5.90
2019-05-28T20:58:08.967Z,9.70
2019-05-28T21:00:35.228Z,7.97
2019-05-28T21:03:01.451Z,5.83
2019-05-28T21:05:27.609Z,6.77
2019-05-28T21:07:54.646Z,7.17
2019-05-28T21:10:20.969Z,7.27
2019-05-28T21:12:48.292Z,7.90
2019-05-28T21:15:15.997Z,5.07
2019-05-28T21:17:42.504Z,5.90
2019-05-28T21:20:09.444Z,6.77
2019-05-28T21:22:35.881Z,5.97
2019-05-28T21:25:05.404Z,4.83
2019-05-28T21:27:31.561Z,5.67
2019-05-28T21:29:58.307Z,5.70
2019-05-28T21:32:24.597Z,6.50
2019-05-28T21:34:53.988Z,6.33
2019-05-28T21:37:19.339Z,7.03
2019-05-28T21:39:45.487Z,6.67
2019-05-28T21:42:11.751Z,4.67
2019-05-28T21:44:38.232Z,5.23
2019-05-28T21:47:04.707Z,4.77
2019-05-28T21:49:30.931Z,7.80
2019-05-28T21:51:57.078Z,6.80
2019-05-28T21:54:23.455Z,5.30
2019-05-28T21:56:49.623Z,6.00
2019-05-28T21:59:15.808Z,5.63
2019-05-28T22:01:42.075Z,5.77
2019-05-28T22:04:08.256Z,7.90
2019-05-28T22:06:34.869Z,7.47
2019-05-28T22:09:02.089Z,6.70
2019-05-28T22:11:30.412Z,5.73
2019-05-28T22:13:58.022Z,5.83
2019-05-28T22:16:24.413Z,9.43
2019-05-28T22:18:50.911Z,8.30
2019-05-28T22:21:17.182Z,6.33
2019-05-28T22:23:43.345Z,11.67
2019-05-28T22:26:09.759Z,8.30
2019-05-28T22:28:35.904Z,7.27
2019-05-28T22:31:02.277Z,6.10
2019-05-28T22:33:28.898Z,6.90
2019-05-28T22:35:55.023Z,7.60
2019-05-28T22:38:21.486Z,4.97
2019-05-28T22:40:47.636Z,9.33
2019-05-28T22:43:13.797Z,5.90
2019-05-28T22:45:43.223Z,6.73
2019-05-28T22:48:15.772Z,5.10
2019-05-28T22:50:36.643Z,9.57
2019-05-28T22:53:03.840Z,8.43
2019-05-28T22:55:30.308Z,6.43
2019-05-28T22:57:58.088Z,4.77
2019-05-28T23:00:24.636Z,5.97
2019-05-28T23:02:52.953Z,6.73
2019-05-28T23:05:19.165Z,6.43
2019-05-28T23:07:45.390Z,6.87
2019-05-28T23:10:12.741Z,5.70
2019-05-28T23:12:38.887Z,4.60
2019-05-28T23:15:08.091Z,7.23
2019-05-28T23:17:34.326Z,8.30
2019-05-28T23:20:00.698Z,4.87
2019-05-28T23:22:27.069Z,6.13
2019-05-28T23:24:53.223Z,4.27
2019-05-28T23:27:19.395Z,6.20
2019-05-28T23:29:45.565Z,7.33
2019-05-28T23:32:12.453Z,4.03
2019-05-28T23:34:38.759Z,4.93
2019-05-28T23:37:06.342Z,4.50
2019-05-28T23:39:34.439Z,4.60
2019-05-28T23:42:00.912Z,6.40
2019-05-28T23:44:27.128Z,6.77
2019-05-28T23:46:53.283Z,5.53
2019-05-28T23:49:19.439Z,6.07
2019-05-28T23:51:45.662Z,6.43
2019-05-28T23:54:11.818Z,6.00
2019-05-28T23:56:37.963Z,6.60
2019-05-28T23:59:04.103Z,5.90
